createdAt,value
2022-12-18T00:00:10.671Z,90.53
2022-12-18T00:02:47.683Z,78.67
2022-12-18T00:05:15.901Z,86.03
2022-12-18T00:07:44.018Z,67.22
2022-12-18T00:10:12.124Z,82.07
2022-12-18T00:12:45.089Z,80.75
2022-12-18T00:15:13.431Z,74.45
2022-12-18T00:17:41.685Z,74.05
2022-12-18T00:20:11.245Z,80.07
2022-12-18T00:22:39.360Z,72.73
2022-12-18T00:25:07.946Z,77.95
2022-12-18T00:27:36.131Z,75.57
2022-12-18T00:30:06.680Z,60.92
2022-12-18T00:32:35.244Z,72.80
2022-12-18T00:35:04.119Z,76.40
2022-12-18T00:37:32.888Z,68.47
2022-12-18T00:40:00.957Z,67.80
2022-12-18T00:42:47.884Z,68.38
2022-12-18T00:45:17.699Z,61.35
2022-12-18T00:47:45.902Z,68.10
2022-12-18T00:50:14.083Z,55.42
2022-12-18T00:52:43.601Z,67.95
2022-12-18T00:55:12.439Z,56.50
2022-12-18T00:57:40.662Z,62.00
2022-12-18T01:00:12.694Z,72.97
2022-12-18T01:02:43.271Z,63.75
2022-12-18T01:05:13.086Z,55.97
2022-12-18T01:07:41.568Z,69.13
2022-12-18T01:10:13.328Z,64.13
2022-12-18T01:12:41.690Z,53.58
2022-12-18T01:15:11.866Z,53.60
2022-12-18T01:17:41.661Z,59.25
2022-12-18T01:20:11.773Z,61.40
2022-12-18T01:22:40.279Z,59.88
2022-12-18T01:25:10.127Z,54.45
2022-12-18T01:27:38.277Z,56.95
2022-12-18T01:30:07.617Z,51.40
2022-12-18T01:32:35.878Z,58.13
2022-12-18T01:35:06.565Z,59.65
2022-12-18T01:37:34.834Z,48.70
2022-12-18T01:40:03.349Z,53.45
2022-12-18T01:42:31.622Z,46.50
2022-12-18T01:45:02.701Z,46.88
2022-12-18T01:47:43.580Z,43.45
2022-12-18T01:50:18.309Z,53.63
2022-12-18T01:52:49.965Z,60.88
2022-12-18T01:55:21.855Z,60.72
2022-12-18T01:57:51.651Z,55.42
2022-12-18T02:00:22.581Z,60.35
2022-12-18T02:02:53.455Z,59.70
2022-12-18T02:05:31.439Z,57.08
2022-12-18T02:08:12.892Z,60.03
2022-12-18T02:10:48.806Z,60.55
2022-12-18T02:13:22.970Z,61.05
2022-12-18T02:16:00.979Z,51.08
2022-12-18T02:18:34.576Z,59.83
2022-12-18T02:21:12.929Z,50.47
2022-12-18T02:23:52.794Z,62.00
2022-12-18T02:26:28.350Z,60.42
2022-12-18T02:29:02.838Z,55.70
2022-12-18T02:31:41.214Z,57.05
2022-12-18T02:34:11.478Z,65.10
2022-12-18T02:36:43.565Z,69.53
2022-12-18T02:39:14.321Z,59.47
2022-12-18T02:41:53.751Z,65.28
2022-12-18T02:44:24.841Z,67.85
2022-12-18T02:46:55.127Z,62.15
2022-12-18T02:49:34.034Z,64.53
2022-12-18T02:52:11.165Z,60.83
2022-12-18T02:54:53.354Z,56.20
2022-12-18T02:57:34.316Z,68.53
2022-12-18T03:00:10.603Z,60.22
2022-12-18T03:02:47.295Z,60.78
2022-12-18T03:05:19.393Z,60.73
2022-12-18T03:07:53.911Z,61.63
2022-12-18T03:10:28.231Z,55.33
2022-12-18T03:13:04.960Z,57.25
2022-12-18T03:15:39.161Z,63.58
2022-12-18T03:18:15.472Z,51.13
2022-12-18T03:20:46.188Z,61.85
2022-12-18T03:23:25.588Z,51.35
2022-12-18T03:26:00.802Z,69.70
2022-12-18T03:28:37.583Z,60.97
2022-12-18T03:31:10.068Z,64.57
2022-12-18T03:33:44.439Z,60.88
2022-12-18T03:36:12.654Z,61.38
2022-12-18T03:38:41.003Z,60.15
2022-12-18T03:41:20.366Z,59.92
2022-12-18T03:44:15.095Z,57.63
2022-12-18T03:46:56.023Z,57.38
2022-12-18T03:49:28.991Z,62.17
2022-12-18T03:52:04.326Z,53.60
2022-12-18T03:54:34.954Z,55.80
2022-12-18T03:57:16.695Z,59.88
2022-12-18T03:59:47.995Z,56.90
2022-12-18T04:02:20.680Z,53.72
2022-12-18T04:04:51.858Z,53.67
2022-12-18T04:07:21.828Z,53.27
2022-12-18T04:09:53.071Z,52.03
2022-12-18T04:12:21.245Z,57.67
2022-12-18T04:14:51.731Z,46.63
2022-12-18T04:17:20.123Z,56.17
2022-12-18T04:19:48.699Z,49.97
2022-12-18T04:22:17.527Z,62.45
2022-12-18T04:24:49.424Z,48.43
2022-12-18T04:27:26.377Z,56.60
2022-12-18T04:29:56.124Z,54.10
2022-12-18T04:32:24.229Z,63.50
2022-12-18T04:34:53.267Z,49.70
2022-12-18T04:37:21.462Z,55.55
2022-12-18T04:39:51.792Z,56.42
2022-12-18T04:42:27.506Z,50.30
2022-12-18T04:44:57.154Z,47.60
2022-12-18T04:47:25.335Z,57.15
2022-12-18T04:49:53.646Z,43.17
2022-12-18T04:52:24.158Z,46.63
2022-12-18T04:54:52.324Z,47.30
2022-12-18T04:57:20.927Z,44.40
2022-12-18T04:59:49.091Z,48.00
2022-12-18T05:02:18.852Z,48.38
2022-12-18T05:04:47.553Z,52.83
2022-12-18T05:07:15.719Z,57.42
2022-12-18T05:09:43.846Z,49.78
2022-12-18T05:12:12.127Z,48.10
2022-12-18T05:14:40.174Z,58.22
2022-12-18T05:17:08.461Z,64.55
2022-12-18T05:19:40.579Z,45.53
2022-12-18T05:22:12.328Z,50.50
2022-12-18T05:24:40.456Z,48.65
2022-12-18T05:27:08.646Z,58.95
2022-12-18T05:29:36.827Z,55.78
2022-12-18T05:32:05.248Z,50.42
2022-12-18T05:34:34.630Z,51.67
2022-12-18T05:37:04.360Z,50.72
2022-12-18T05:39:32.605Z,53.63
2022-12-18T05:42:00.676Z,50.15
2022-12-18T05:44:28.813Z,47.58
2022-12-18T05:46:57.014Z,48.60
2022-12-18T05:49:25.698Z,49.42
2022-12-18T05:51:53.995Z,53.60
2022-12-18T05:54:23.877Z,57.58
2022-12-18T05:56:52.074Z,54.90
2022-12-18T05:59:20.210Z,49.05
2022-12-18T06:01:48.614Z,52.90
2022-12-18T06:04:17.073Z,56.95
2022-12-18T06:06:45.227Z,51.38
2022-12-18T06:09:13.316Z,58.33
2022-12-18T06:11:42.778Z,47.40
2022-12-18T06:14:11.854Z,48.50
2022-12-18T06:16:40.001Z,49.33
2022-12-18T06:19:08.321Z,55.08
2022-12-18T06:21:36.479Z,53.78
2022-12-18T06:24:04.677Z,51.08
2022-12-18T06:26:32.850Z,64.95
2022-12-18T06:29:02.368Z,45.45
2022-12-18T06:31:31.137Z,53.50
2022-12-18T06:33:59.423Z,50.70
2022-12-18T06:36:27.725Z,44.80
2022-12-18T06:38:59.463Z,45.65
2022-12-18T06:41:27.708Z,50.65
2022-12-18T06:43:59.696Z,46.85
2022-12-18T06:46:29.664Z,49.50
2022-12-18T06:48:57.790Z,46.60
2022-12-18T06:51:26.974Z,56.47
2022-12-18T06:53:55.067Z,54.63
2022-12-18T06:56:23.347Z,47.53
2022-12-18T06:58:54.565Z,52.42
2022-12-18T07:01:23.432Z,47.63
2022-12-18T07:03:56.165Z,50.97
2022-12-18T07:06:25.477Z,48.05
2022-12-18T07:08:55.802Z,46.17
2022-12-18T07:11:24.332Z,49.90
2022-12-18T07:13:52.572Z,46.42
2022-12-18T07:16:25.264Z,46.10
2022-12-18T07:18:57.023Z,48.20
2022-12-18T07:21:26.314Z,55.40
2022-12-18T07:23:54.793Z,44.20
2022-12-18T07:26:23.877Z,41.20
2022-12-18T07:28:52.584Z,52.58
2022-12-18T07:31:23.808Z,54.42
2022-12-18T07:33:53.171Z,44.45
2022-12-18T07:36:30.270Z,43.92
2022-12-18T07:38:58.521Z,50.50
2022-12-18T07:41:26.808Z,46.13
2022-12-18T07:43:54.961Z,60.78
2022-12-18T07:46:23.325Z,51.88
2022-12-18T07:48:51.482Z,50.05
2022-12-18T07:51:20.147Z,51.58
2022-12-18T07:53:51.995Z,52.35
2022-12-18T07:56:27.626Z,55.95
2022-12-18T07:58:57.828Z,51.33
2022-12-18T08:01:26.493Z,89.05
2022-12-18T08:03:54.782Z,64.47
2022-12-18T08:06:24.216Z,49.58
2022-12-18T08:08:55.474Z,38.17
2022-12-18T08:11:24.782Z,47.83
2022-12-18T08:13:53.206Z,46.63
2022-12-18T08:16:22.208Z,48.95
2022-12-18T08:18:50.562Z,44.50
2022-12-18T08:21:22.316Z,64.28
2022-12-18T08:23:51.644Z,90.88
2022-12-18T08:26:22.038Z,68.70
2022-12-18T08:28:52.028Z,52.50
2022-12-18T08:31:20.925Z,49.90
2022-12-18T08:33:51.197Z,52.10
2022-12-18T08:36:19.480Z,48.53
2022-12-18T08:38:47.918Z,54.33
2022-12-18T08:41:18.197Z,52.70
2022-12-18T08:44:05.160Z,51.83
2022-12-18T08:46:38.572Z,55.65
2022-12-18T08:49:08.277Z,56.30
2022-12-18T08:51:37.049Z,52.17
2022-12-18T08:54:06.688Z,62.97
2022-12-18T08:56:35.060Z,62.45
2022-12-18T08:59:05.487Z,55.97
2022-12-18T09:01:33.798Z,56.00
2022-12-18T09:04:03.805Z,57.90
2022-12-18T09:06:32.988Z,67.07
2022-12-18T09:09:01.068Z,66.03
2022-12-18T09:11:31.325Z,52.67
2022-12-18T09:14:00.816Z,60.92
2022-12-18T09:16:32.984Z,58.75
2022-12-18T09:19:02.343Z,55.08
2022-12-18T09:21:32.670Z,59.78
2022-12-18T09:24:08.877Z,63.05
2022-12-18T09:26:37.632Z,73.68
2022-12-18T09:29:08.184Z,65.45
2022-12-18T09:31:38.942Z,64.43
2022-12-18T09:34:07.084Z,65.53
2022-12-18T09:36:35.963Z,69.03
2022-12-18T09:39:08.170Z,75.88
2022-12-18T09:41:51.074Z,57.22
2022-12-18T09:44:25.710Z,55.40
2022-12-18T09:47:16.682Z,63.97
2022-12-18T09:49:46.670Z,52.55
2022-12-18T09:52:21.437Z,60.17
2022-12-18T09:54:54.307Z,72.22
2022-12-18T09:57:25.584Z,65.03
2022-12-18T09:59:57.242Z,63.55
2022-12-18T10:02:28.583Z,61.20
2022-12-18T10:05:07.104Z,68.22
2022-12-18T10:07:46.303Z,74.15
2022-12-18T10:10:26.699Z,67.00
2022-12-18T10:13:04.766Z,74.63
2022-12-18T10:15:39.298Z,66.22
2022-12-18T10:18:24.383Z,60.80
2022-12-18T10:20:55.249Z,54.95
2022-12-18T10:23:30.302Z,55.50
2022-12-18T10:26:04.640Z,65.00
2022-12-18T10:28:34.794Z,60.00
2022-12-18T10:31:08.036Z,49.25
2022-12-18T10:33:38.064Z,48.15
2022-12-18T10:36:07.367Z,59.15
2022-12-18T10:38:35.907Z,55.83
2022-12-18T10:41:06.628Z,50.20
2022-12-18T10:43:36.527Z,66.07
2022-12-18T10:46:16.697Z,66.30
2022-12-18T10:48:56.414Z,68.30
2022-12-18T10:51:27.020Z,62.65
2022-12-18T10:53:59.165Z,62.10
2022-12-18T10:56:30.111Z,73.85
2022-12-18T10:59:01.178Z,62.10
2022-12-18T11:01:30.135Z,55.72
2022-12-18T11:04:11.205Z,64.18
2022-12-18T11:06:55.947Z,64.93
2022-12-18T11:09:25.682Z,55.22
2022-12-18T11:11:55.661Z,64.03
2022-12-18T11:14:26.040Z,63.47
2022-12-18T11:19:46.291Z,62.17
2022-12-18T11:22:23.075Z,63.10
2022-12-18T11:25:30.129Z,59.92
2022-12-18T11:27:51.661Z,66.50
2022-12-18T11:30:25.098Z,73.68
2022-12-18T11:32:58.142Z,65.35
2022-12-18T11:35:39.541Z,75.70
2022-12-18T11:38:16.991Z,68.93
2022-12-18T11:40:49.650Z,83.07
2022-12-18T11:43:23.910Z,73.20
2022-12-18T11:45:55.495Z,87.93
2022-12-18T11:48:26.755Z,84.70
2022-12-18T11:50:58.233Z,71.07
2022-12-18T11:53:27.432Z,83.93
2022-12-18T11:56:05.783Z,93.45
2022-12-18T11:58:49.927Z,106.07
2022-12-18T12:01:44.571Z,93.97
2022-12-18T12:05:00.970Z,81.25
2022-12-18T12:07:44.457Z,79.57
2022-12-18T12:10:25.300Z,105.20
2022-12-18T12:13:05.381Z,96.88
2022-12-18T12:15:45.687Z,101.72
2022-12-18T12:18:23.933Z,86.45
2022-12-18T12:21:00.592Z,97.38
2022-12-18T12:23:41.334Z,85.10
2022-12-18T12:26:13.202Z,88.20
2022-12-18T12:29:03.835Z,89.78
2022-12-18T12:31:45.630Z,90.15
2022-12-18T12:34:22.091Z,109.43
2022-12-18T12:37:09.639Z,104.93
2022-12-18T12:39:41.576Z,146.57
2022-12-18T12:42:36.418Z,128.95
2022-12-18T12:45:08.875Z,110.43
2022-12-18T12:47:43.065Z,100.00
2022-12-18T12:50:18.339Z,87.25
2022-12-18T12:52:51.751Z,116.32
2022-12-18T12:55:24.247Z,99.57
2022-12-18T12:58:01.824Z,99.03
2022-12-18T13:00:38.324Z,98.65
2022-12-18T13:03:14.335Z,118.78
2022-12-18T13:05:48.351Z,87.80
2022-12-18T13:08:25.513Z,114.45
2022-12-18T13:11:18.693Z,100.45
2022-12-18T13:13:51.601Z,100.82
2022-12-18T13:16:22.214Z,78.88
2022-12-18T13:18:55.317Z,100.43
2022-12-18T13:21:28.171Z,104.35
2022-12-18T13:23:57.154Z,101.53
2022-12-18T13:26:35.239Z,100.00
2022-12-18T13:29:05.267Z,106.35
2022-12-18T13:32:20.680Z,101.18
2022-12-18T13:34:50.582Z,97.97
2022-12-18T13:37:45.493Z,96.93
2022-12-18T13:40:57.759Z,87.72
2022-12-18T13:43:38.432Z,96.75
2022-12-18T13:46:22.161Z,86.82
2022-12-18T13:48:58.118Z,87.88
2022-12-18T13:51:27.616Z,82.43
2022-12-18T13:53:59.078Z,84.57
2022-12-18T13:56:30.883Z,100.70
2022-12-18T13:59:18.364Z,89.63
2022-12-18T14:01:54.656Z,98.75
2022-12-18T14:04:25.974Z,85.28
2022-12-18T14:06:58.530Z,84.20
2022-12-18T14:09:31.114Z,86.03
2022-12-18T14:12:19.498Z,69.97
2022-12-18T14:14:52.519Z,70.90
2022-12-18T14:17:24.865Z,80.45
2022-12-18T14:19:53.827Z,73.50
2022-12-18T14:22:28.705Z,86.65
2022-12-18T14:25:16.016Z,89.55
2022-12-18T14:27:46.187Z,80.10
2022-12-18T14:30:32.470Z,78.72
2022-12-18T14:33:05.623Z,84.18
2022-12-18T14:35:34.775Z,88.97
2022-12-18T14:38:30.638Z,79.63
2022-12-18T14:41:01.641Z,85.93
2022-12-18T14:43:31.353Z,102.10
2022-12-18T14:46:01.747Z,95.63
2022-12-18T14:48:39.007Z,90.97
2022-12-18T14:51:09.092Z,87.93
2022-12-18T14:53:40.832Z,93.70
2022-12-18T14:56:18.952Z,92.15
2022-12-18T14:58:52.246Z,89.75
2022-12-18T15:01:25.242Z,86.72
2022-12-18T15:03:54.881Z,86.05
2022-12-18T15:06:32.912Z,77.47
2022-12-18T15:09:02.169Z,84.72
2022-12-18T15:11:35.759Z,95.00
2022-12-18T15:14:26.141Z,81.20
2022-12-18T15:16:57.209Z,75.53
2022-12-18T15:19:34.579Z,77.63
2022-12-18T15:22:06.532Z,74.55
2022-12-18T15:24:35.536Z,80.03
2022-12-18T15:27:04.121Z,76.45
2022-12-18T15:29:32.339Z,80.63
2022-12-18T15:32:04.463Z,70.75
2022-12-18T15:34:35.137Z,72.55
2022-12-18T15:37:03.683Z,70.45
2022-12-18T15:39:32.005Z,73.18
2022-12-18T15:42:17.555Z,72.93
2022-12-18T15:44:46.681Z,66.75
2022-12-18T15:47:16.517Z,73.82
2022-12-18T15:49:44.932Z,74.50
2022-12-18T15:52:27.290Z,73.35
2022-12-18T15:55:13.055Z,70.90
2022-12-18T15:57:41.661Z,68.45
2022-12-18T16:00:14.666Z,79.38
2022-12-18T16:02:44.442Z,73.90
2022-12-18T16:05:18.044Z,75.90
2022-12-18T16:07:46.635Z,69.78
2022-12-18T16:10:15.661Z,68.90
2022-12-18T16:12:44.431Z,83.78
2022-12-18T16:15:22.509Z,75.00
2022-12-18T16:17:54.086Z,82.57
2022-12-18T16:20:23.992Z,82.43
2022-12-18T16:22:54.138Z,75.05
2022-12-18T16:25:25.565Z,83.10
2022-12-18T16:27:56.171Z,78.75
2022-12-18T16:30:27.403Z,84.95
2022-12-18T16:32:58.288Z,78.50
2022-12-18T16:35:27.768Z,81.28
2022-12-18T16:37:56.145Z,88.68
2022-12-18T16:40:24.535Z,81.70
2022-12-18T16:42:53.094Z,79.73
2022-12-18T16:45:21.515Z,89.20
2022-12-18T16:47:50.364Z,88.10
2022-12-18T16:50:20.406Z,80.72
2022-12-18T16:52:48.664Z,85.65
2022-12-18T16:55:17.040Z,91.97
2022-12-18T16:57:48.596Z,95.87
2022-12-18T17:00:18.636Z,97.38
2022-12-18T17:02:47.563Z,87.65
2022-12-18T17:05:17.367Z,74.30
2022-12-18T17:07:47.777Z,107.53
2022-12-18T17:10:16.123Z,79.77
2022-12-18T17:12:44.401Z,87.37
2022-12-18T17:15:12.882Z,89.53
2022-12-18T17:17:41.089Z,83.97
2022-12-18T17:20:10.593Z,84.57
2022-12-18T17:22:38.760Z,87.20
2022-12-18T17:25:08.998Z,88.03
2022-12-18T17:27:37.339Z,85.27
2022-12-18T17:30:06.779Z,90.47
2022-12-18T17:32:35.139Z,91.70
2022-12-18T17:35:07.133Z,87.47
2022-12-18T17:37:37.029Z,81.90
2022-12-18T17:40:06.201Z,95.00
2022-12-18T17:42:35.927Z,88.53
2022-12-18T17:45:04.448Z,95.83
2022-12-18T17:47:32.615Z,84.13
2022-12-18T17:50:03.710Z,89.07
2022-12-18T17:52:32.091Z,85.75
2022-12-18T17:55:00.284Z,85.00
2022-12-18T17:57:28.696Z,80.68
2022-12-18T17:59:58.356Z,77.40
2022-12-18T18:02:26.776Z,85.95
2022-12-18T18:04:55.115Z,79.82
2022-12-18T18:07:23.597Z,78.53
2022-12-18T18:09:51.875Z,89.05
2022-12-18T18:12:37.354Z,91.05
2022-12-18T18:15:08.331Z,78.37
2022-12-18T18:17:37.076Z,89.32
2022-12-18T18:20:06.177Z,93.68
2022-12-18T18:22:35.377Z,89.60
2022-12-18T18:25:04.172Z,92.57
2022-12-18T18:27:38.738Z,87.40
2022-12-18T18:30:10.645Z,94.07
2022-12-18T18:32:39.893Z,81.70
2022-12-18T18:35:15.685Z,82.85
2022-12-18T18:37:53.200Z,84.07
2022-12-18T18:40:22.358Z,92.07
2022-12-18T18:42:50.510Z,75.13
2022-12-18T18:45:20.130Z,95.95
2022-12-18T18:47:48.376Z,86.13
2022-12-18T18:50:16.569Z,86.22
2022-12-18T18:52:44.722Z,96.10
2022-12-18T18:55:22.009Z,86.18
2022-12-18T18:57:54.000Z,85.47
2022-12-18T19:00:23.623Z,87.50
2022-12-18T19:02:56.395Z,92.28
2022-12-18T19:05:28.546Z,158.43
2022-12-18T19:07:57.763Z,74.20
2022-12-18T19:10:26.064Z,83.15
2022-12-18T19:13:11.565Z,97.55
2022-12-18T19:15:41.091Z,91.32
2022-12-18T19:18:09.295Z,92.10
2022-12-18T19:20:38.078Z,93.05
2022-12-18T19:23:06.182Z,92.28
2022-12-18T19:25:40.424Z,102.53
2022-12-18T19:28:21.345Z,100.82
2022-12-18T19:30:57.893Z,90.10
2022-12-18T19:33:45.067Z,100.85
2022-12-18T19:36:16.735Z,100.63
2022-12-18T19:38:45.420Z,98.05
2022-12-18T19:41:14.176Z,94.47
2022-12-18T19:43:43.010Z,103.87
2022-12-18T19:46:15.532Z,96.30
2022-12-18T19:48:45.098Z,97.82
2022-12-18T19:51:16.361Z,98.05
2022-12-18T19:53:44.988Z,97.30
2022-12-18T19:56:14.628Z,103.70
2022-12-18T19:58:43.676Z,94.70
2022-12-18T20:01:13.867Z,106.03
2022-12-18T20:03:50.046Z,100.05
2022-12-18T20:06:24.869Z,98.10
2022-12-18T20:09:00.114Z,111.03
2022-12-18T20:11:30.104Z,99.87
2022-12-18T20:13:58.881Z,97.33
2022-12-18T20:16:31.058Z,87.50
2022-12-18T20:19:00.095Z,85.97
2022-12-18T20:21:28.582Z,92.30
2022-12-18T20:23:57.101Z,105.15
2022-12-18T20:26:25.920Z,95.38
2022-12-18T20:28:55.306Z,81.07
2022-12-18T20:31:23.909Z,80.83
2022-12-18T20:33:55.631Z,89.00
2022-12-18T20:36:27.115Z,94.27
2022-12-18T20:39:01.629Z,84.97
2022-12-18T20:41:37.500Z,99.70
2022-12-18T20:44:08.530Z,96.00
2022-12-18T20:46:50.644Z,81.67
2022-12-18T20:49:20.466Z,117.60
2022-12-18T20:51:52.229Z,100.30
2022-12-18T20:54:20.853Z,88.53
2022-12-18T20:56:49.003Z,91.70
2022-12-18T20:59:17.252Z,85.00
2022-12-18T21:01:48.871Z,83.83
2022-12-18T21:04:19.720Z,95.97
2022-12-18T21:06:52.885Z,89.70
2022-12-18T21:09:24.170Z,104.57
2022-12-18T21:12:14.162Z,100.47
2022-12-18T21:14:43.326Z,91.25
2022-12-18T21:17:11.604Z,93.78
2022-12-18T21:19:41.254Z,111.50
2022-12-18T21:22:09.525Z,97.30
2022-12-18T21:24:37.951Z,96.70
2022-12-18T21:27:06.062Z,96.05
2022-12-18T21:29:34.989Z,88.00
2022-12-18T21:32:03.942Z,97.63
2022-12-18T21:34:33.121Z,96.57
2022-12-18T21:37:03.389Z,102.18
2022-12-18T21:39:33.043Z,103.78
2022-12-18T21:42:18.686Z,97.25
2022-12-18T21:44:49.922Z,87.00
2022-12-18T21:47:22.569Z,94.45
2022-12-18T21:49:52.509Z,96.55
2022-12-18T21:52:26.271Z,97.30
2022-12-18T21:55:08.038Z,92.70
2022-12-18T21:57:37.997Z,94.15
2022-12-18T22:00:07.537Z,84.93
2022-12-18T22:02:41.811Z,96.78
2022-12-18T22:05:10.833Z,105.93
2022-12-18T22:07:41.311Z,96.40
2022-12-18T22:10:10.269Z,101.13
2022-12-18T22:12:44.167Z,103.75
2022-12-18T22:15:21.396Z,95.68
2022-12-18T22:17:51.030Z,102.07
2022-12-18T22:20:19.877Z,92.18
2022-12-18T22:22:51.669Z,92.28
2022-12-18T22:25:20.234Z,98.97
2022-12-18T22:28:08.319Z,100.95
2022-12-18T22:30:35.694Z,127.90
2022-12-18T22:33:03.856Z,102.35
2022-12-18T22:35:32.165Z,103.50
2022-12-18T22:38:02.023Z,95.07
2022-12-18T22:40:30.667Z,90.95
2022-12-18T22:42:59.055Z,101.53
2022-12-18T22:45:27.822Z,99.55
2022-12-18T22:47:56.345Z,94.25
2022-12-18T22:50:24.394Z,90.25
2022-12-18T22:52:52.583Z,105.70
2022-12-18T22:55:22.293Z,96.50
2022-12-18T22:57:51.047Z,87.60
2022-12-18T23:00:23.878Z,94.88
2022-12-18T23:02:59.730Z,97.38
2022-12-18T23:05:30.313Z,81.10
2022-12-18T23:07:59.243Z,99.95
2022-12-18T23:10:29.206Z,88.82
2022-12-18T23:12:57.474Z,86.30
2022-12-18T23:15:28.051Z,86.30
2022-12-18T23:17:58.976Z,93.63
2022-12-18T23:20:28.268Z,96.10
2022-12-18T23:22:56.632Z,84.55
2022-12-18T23:25:24.978Z,83.60
2022-12-18T23:27:54.649Z,90.63
2022-12-18T23:30:22.848Z,86.22
2022-12-18T23:32:50.983Z,84.68
2022-12-18T23:35:19.350Z,104.45
2022-12-18T23:38:04.193Z,85.45
2022-12-18T23:40:32.502Z,85.65
2022-12-18T23:43:02.025Z,86.65
2022-12-18T23:45:30.119Z,89.80
2022-12-18T23:47:58.319Z,84.38
2022-12-18T23:50:29.557Z,86.10
2022-12-18T23:53:05.530Z,82.22
2022-12-18T23:55:38.625Z,103.20
2022-12-18T23:58:08.932Z,90.75
